Time;durP1;ratioP1;P1;durP2;ratioP2;P2;SDS_P1;SDS_P2;PMS_P1;PMS_P2;Temp;Humidity;BMP_temperature;BMP_pressure;BME280_temperature;BME280_humidity;BME280_pressure;Samples;Min_cycle;Max_cycle;Signal;HPM_P1;HPM_P2
2021/06/08 00:00:53;;;;;;;25.55;17.00;;;16.00;99.90;;;;;;5048540;28;20086;-57
2021/06/08 00:03:18;;;;;;;21.88;15.73;;;15.90;99.90;;;;;;5072320;28;20386;-58
2021/06/08 00:05:44;;;;;;;28.00;16.67;;;15.90;99.90;;;;;;5070849;28;20032;-59
2021/06/08 00:08:10;;;;;;;22.45;17.17;;;15.90;99.90;;;;;;5037476;28;20028;-58
2021/06/08 00:10:35;;;;;;;27.42;17.17;;;15.80;99.90;;;;;;5072224;28;20379;-60
2021/06/08 00:13:01;;;;;;;22.65;16.20;;;15.80;99.90;;;;;;5070072;28;20122;-59
2021/06/08 00:15:27;;;;;;;25.20;17.00;;;15.80;99.90;;;;;;5073027;28;20052;-59
2021/06/08 00:17:52;;;;;;;25.67;17.73;;;15.80;99.90;;;;;;5070786;28;20074;-59
2021/06/08 00:20:18;;;;;;;21.83;16.52;;;15.80;99.90;;;;;;5071385;28;20052;-59
2021/06/08 00:22:43;;;;;;;24.15;15.57;;;15.90;99.90;;;;;;5072156;28;20025;-56
2021/06/08 00:25:10;;;;;;;24.00;16.27;;;15.90;99.90;;;;;;5054365;22;20033;-55
2021/06/08 00:27:35;;;;;;;20.60;15.13;;;16.00;99.90;;;;;;5007836;28;20032;-55
2021/06/08 00:30:01;;;;;;;19.02;14.38;;;16.10;99.90;;;;;;5007820;28;20471;-55
2021/06/08 00:32:27;;;;;;;19.88;15.00;;;16.20;99.90;;;;;;5007697;28;20037;-54
2021/06/08 00:34:52;;;;;;;16.55;13.20;;;16.20;99.90;;;;;;5005919;28;20483;-59
2021/06/08 00:37:18;;;;;;;18.73;14.35;;;16.30;99.90;;;;;;5006579;28;20030;-54
2021/06/08 00:39:44;;;;;;;23.92;15.85;;;16.30;99.90;;;;;;5007425;28;20052;-56
2021/06/08 00:42:09;;;;;;;20.85;14.82;;;16.40;99.90;;;;;;5006212;28;20509;-58
2021/06/08 00:44:35;;;;;;;21.35;14.43;;;16.40;99.90;;;;;;5006303;28;20055;-57
2021/06/08 00:47:00;;;;;;;23.10;14.02;;;16.50;99.90;;;;;;5006176;28;20034;-55
2021/06/08 00:49:26;;;;;;;20.20;14.77;;;16.50;99.90;;;;;;5007452;28;20127;-55
2021/06/08 00:51:52;;;;;;;20.63;14.88;;;16.40;99.90;;;;;;5006926;28;20021;-57
2021/06/08 00:54:18;;;;;;;22.38;14.35;;;16.40;99.90;;;;;;5006640;28;20022;-58
2021/06/08 00:56:45;;;;;;;22.10;14.23;;;16.30;99.90;;;;;;5006430;28;20041;-60
2021/06/08 00:59:11;;;;;;;23.92;15.18;;;16.20;99.90;;;;;;5006883;28;20117;-52
2021/06/08 01:01:38;;;;;;;24.17;15.88;;;16.10;99.90;;;;;;5003786;28;20128;-56
2021/06/08 01:04:06;;;;;;;26.73;17.35;;;16.10;99.90;;;;;;5006767;28;20030;-56
2021/06/08 01:06:36;;;;;;;23.70;17.25;;;16.00;99.90;;;;;;5006151;28;20026;-56
2021/06/08 01:09:04;;;;;;;21.58;16.27;;;16.00;99.90;;;;;;5004289;28;20029;-54
2021/06/08 01:11:30;;;;;;;20.92;16.10;;;16.00;99.90;;;;;;5006497;28;20128;-53
2021/06/08 01:13:56;;;;;;;25.02;16.95;;;16.10;99.90;;;;;;5006477;28;20128;-53
2021/06/08 01:16:22;;;;;;;20.92;16.40;;;16.10;99.90;;;;;;5004898;28;20433;-54
2021/06/08 01:18:49;;;;;;;27.00;17.60;;;16.00;99.90;;;;;;5006779;28;20033;-54
2021/06/08 01:21:15;;;;;;;23.77;17.80;;;16.00;99.90;;;;;;5006834;28;20036;-54
2021/06/08 01:23:42;;;;;;;27.65;18.40;;;16.00;99.90;;;;;;5006395;28;20101;-56
2021/06/08 01:26:08;;;;;;;27.58;18.95;;;16.00;99.90;;;;;;5006801;28;20057;-54
2021/06/08 01:28:35;;;;;;;29.40;19.50;;;16.00;99.90;;;;;;5006395;28;20439;-58
2021/06/08 01:31:06;;;;;;;26.23;18.17;;;16.00;99.90;;;;;;5006152;28;20017;-58
2021/06/08 01:33:33;;;;;;;31.60;19.52;;;15.90;99.90;;;;;;5005819;28;20018;-56
2021/06/08 01:36:00;;;;;;;31.10;20.92;;;15.80;99.90;;;;;;5005055;28;20428;-53
2021/06/08 01:38:26;;;;;;;32.17;21.33;;;15.80;99.90;;;;;;5014374;28;20079;-59
2021/06/08 01:40:53;;;;;;;28.92;20.58;;;15.70;99.90;;;;;;5006278;28;20036;-57
2021/06/08 01:43:19;;;;;;;28.30;21.58;;;15.70;99.90;;;;;;5006611;28;20030;-57
2021/06/08 01:45:49;;;;;;;34.20;21.67;;;15.70;99.90;;;;;;5004652;28;20022;-58
2021/06/08 01:48:15;;;;;;;29.75;20.38;;;15.60;99.90;;;;;;5003300;28;20034;-56
2021/06/08 01:50:42;;;;;;;32.25;21.20;;;15.70;99.90;;;;;;5006474;28;20495;-58
2021/06/08 01:53:16;;;;;;;33.13;21.80;;;15.60;99.90;;;;;;5006362;28;20037;-55
2021/06/08 01:55:44;;;;;;;28.85;20.08;;;15.60;99.90;;;;;;5002433;28;20045;-53
2021/06/08 01:58:41;;;;;;;31.02;22.65;;;15.70;99.90;;;;;;5000312;28;20376;-57
2021/06/08 02:01:22;;;;;;;31.88;22.85;;;15.70;99.90;;;;;;5003971;28;20018;-54
2021/06/08 02:04:21;;;;;;;32.10;21.48;;;15.60;99.90;;;;;;5006223;28;20049;-55
2021/06/08 02:06:52;;;;;;;31.85;21.65;;;15.60;99.90;;;;;;5005068;28;20526;-58
2021/06/08 02:09:20;;;;;;;34.20;21.33;;;15.60;99.90;;;;;;5005964;28;20038;-59
2021/06/08 02:12:01;;;;;;;29.92;20.75;;;15.60;99.90;;;;;;5006796;28;20130;-57
2021/06/08 02:14:48;;;;;;;29.60;20.35;;;15.50;99.90;;;;;;5009313;28;20029;-55
2021/06/08 02:17:39;;;;;;;30.67;21.55;;;15.60;99.90;;;;;;5007973;28;20036;-60
2021/06/08 02:20:28;;;;;;;30.55;21.42;;;15.60;99.90;;;;;;5015358;28;20038;-58
2021/06/08 02:22:58;;;;;;;28.70;21.52;;;15.60;99.90;;;;;;5009472;28;20041;-58
2021/06/08 02:25:26;;;;;;;36.03;22.33;;;15.60;99.90;;;;;;5008476;28;20107;-53
2021/06/08 02:27:54;;;;;;;30.90;21.52;;;15.60;99.90;;;;;;5009699;28;20045;-57
2021/06/08 02:30:21;;;;;;;32.35;22.85;;;15.60;99.90;;;;;;5009336;28;20025;-57
2021/06/08 02:32:48;;;;;;;32.78;22.10;;;15.60;99.90;;;;;;5008627;28;20030;-58
2021/06/08 02:35:15;;;;;;;29.42;21.05;;;15.60;99.90;;;;;;5008533;28;20141;-57
2021/06/08 02:37:41;;;;;;;27.08;20.42;;;15.60;99.90;;;;;;5008622;28;20459;-61
2021/06/08 02:40:08;;;;;;;30.10;20.15;;;15.60;99.90;;;;;;5008087;28;20038;-59
2021/06/08 02:42:34;;;;;;;31.85;21.88;;;15.70;99.90;;;;;;5008773;28;20386;-61
2021/06/08 02:45:01;;;;;;;31.75;23.02;;;15.70;99.90;;;;;;5008912;28;20390;-56
2021/06/08 02:47:28;;;;;;;25.70;19.75;;;15.60;99.90;;;;;;5006847;28;20030;-55
2021/06/08 02:49:55;;;;;;;32.60;21.75;;;15.70;99.90;;;;;;5008391;28;20065;-58
2021/06/08 02:52:22;;;;;;;29.63;20.80;;;15.60;99.90;;;;;;5008529;28;20428;-60
2021/06/08 02:54:51;;;;;;;31.77;23.10;;;15.70;99.90;;;;;;5008049;28;20445;-60
2021/06/08 02:57:19;;;;;;;29.13;21.40;;;15.70;99.90;;;;;;5008122;28;20112;-62
2021/06/08 02:59:48;;;;;;;28.33;21.98;;;15.70;99.90;;;;;;5007203;28;20454;-58
2021/06/08 03:02:16;;;;;;;31.08;23.70;;;15.70;99.90;;;;;;5007958;28;20105;-59
2021/06/08 03:05:09;;;;;;;32.05;22.42;;;15.60;99.90;;;;;;5008338;28;20049;-58
2021/06/08 03:07:38;;;;;;;34.83;24.13;;;15.70;99.90;;;;;;5008147;28;20026;-59
2021/06/08 03:10:09;;;;;;;27.75;20.33;;;15.80;99.90;;;;;;5008532;28;20022;-56
2021/06/08 03:12:45;;;;;;;32.25;22.92;;;15.80;99.90;;;;;;5006552;28;20014;-60
2021/06/08 03:15:12;;;;;;;34.97;25.08;;;15.90;99.90;;;;;;5004224;28;20021;-59
2021/06/08 03:17:41;;;;;;;35.20;25.75;;;16.00;99.90;;;;;;5007335;28;20032;-60
2021/06/08 03:20:30;;;;;;;41.05;27.08;;;16.00;99.90;;;;;;5008715;28;20018;-59
2021/06/08 03:23:00;;;;;;;36.38;25.42;;;16.10;99.90;;;;;;5004045;28;20037;-56
2021/06/08 03:25:27;;;;;;;39.50;26.58;;;16.20;99.90;;;;;;5005220;28;20356;-60
2021/06/08 03:27:55;;;;;;;33.40;24.00;;;16.20;99.90;;;;;;5005985;28;20403;-56
2021/06/08 03:30:22;;;;;;;44.40;26.48;;;16.20;99.90;;;;;;5007227;28;20022;-60
2021/06/08 03:32:50;;;;;;;38.72;26.08;;;16.10;99.90;;;;;;5007988;28;20348;-58
2021/06/08 03:35:16;;;;;;;35.15;24.35;;;16.00;99.90;;;;;;5005899;28;20037;-61
2021/06/08 03:37:43;;;;;;;38.28;26.88;;;15.90;99.90;;;;;;5006701;28;20030;-60
2021/06/08 03:40:10;;;;;;;45.20;28.98;;;15.90;99.90;;;;;;5008095;28;20033;-62
2021/06/08 03:42:39;;;;;;;45.25;29.08;;;15.80;99.90;;;;;;5007812;28;20025;-56
2021/06/08 03:45:06;;;;;;;42.63;29.50;;;15.70;99.90;;;;;;5008031;28;20479;-58
2021/06/08 03:47:31;;;;;;;47.95;30.23;;;15.70;99.90;;;;;;5008113;28;20022;-58
2021/06/08 03:49:57;;;;;;;48.15;31.80;;;15.60;99.90;;;;;;5007601;28;20098;-56
2021/06/08 03:52:26;;;;;;;46.05;31.17;;;15.60;99.90;;;;;;5008050;28;20030;-55
2021/06/08 03:54:52;;;;;;;50.33;33.33;;;15.60;99.90;;;;;;5007249;28;20105;-58
2021/06/08 03:57:26;;;;;;;51.95;31.65;;;15.50;99.90;;;;;;5003080;28;20439;-58
2021/06/08 03:59:52;;;;;;;49.17;31.88;;;15.50;99.90;;;;;;5007424;28;20038;-58
2021/06/08 04:02:19;;;;;;;57.67;32.10;;;15.50;99.90;;;;;;5007829;28;20018;-55
2021/06/08 04:04:45;;;;;;;52.53;32.92;;;15.60;99.90;;;;;;5007403;28;20022;-56
2021/06/08 04:07:11;;;;;;;47.83;29.55;;;15.60;99.90;;;;;;5006597;28;20030;-55
2021/06/08 04:09:37;;;;;;;46.97;30.20;;;15.60;99.90;;;;;;5019613;28;20593;-57
2021/06/08 04:12:03;;;;;;;49.33;33.05;;;15.60;99.90;;;;;;5007597;28;20041;-59
2021/06/08 04:14:30;;;;;;;46.25;29.80;;;15.70;99.90;;;;;;5007364;28;20040;-59
2021/06/08 04:16:56;;;;;;;45.97;29.50;;;15.80;99.90;;;;;;5006776;28;20045;-61
2021/06/08 04:19:22;;;;;;;44.58;28.58;;;15.80;99.90;;;;;;5007244;28;20029;-59
2021/06/08 04:21:51;;;;;;;41.72;27.75;;;15.80;99.90;;;;;;5005729;28;20022;-58
2021/06/08 04:24:17;;;;;;;45.75;28.35;;;15.80;99.90;;;;;;5006005;28;20030;-58
2021/06/08 04:26:43;;;;;;;47.85;29.50;;;15.90;99.90;;;;;;5007368;28;20026;-60
2021/06/08 04:29:09;;;;;;;39.17;27.67;;;15.90;99.90;;;;;;5007200;28;20054;-60
2021/06/08 04:31:35;;;;;;;43.33;27.38;;;16.00;99.90;;;;;;5007240;28;20467;-60
2021/06/08 04:34:01;;;;;;;43.15;28.35;;;16.10;99.90;;;;;;5007265;28;20026;-62
2021/06/08 04:36:27;;;;;;;40.92;27.08;;;16.10;99.90;;;;;;5007006;28;20049;-60
2021/06/08 04:38:53;;;;;;;41.45;27.42;;;16.20;99.90;;;;;;5006825;28;20047;-59
2021/06/08 04:41:19;;;;;;;40.97;29.17;;;16.30;99.90;;;;;;5005564;28;20098;-60
2021/06/08 04:43:45;;;;;;;45.95;28.92;;;16.40;99.90;;;;;;5006886;28;20038;-56
2021/06/08 04:46:13;;;;;;;43.72;28.90;;;16.50;99.90;;;;;;5006456;28;20022;-59
2021/06/08 04:48:40;;;;;;;44.47;29.80;;;16.50;99.90;;;;;;5003186;28;20107;-61
2021/06/08 04:51:05;;;;;;;45.88;30.02;;;16.50;99.90;;;;;;5006608;28;20028;-62
2021/06/08 04:53:31;;;;;;;51.97;31.17;;;16.60;99.90;;;;;;5006788;28;20056;-58
2021/06/08 04:55:57;;;;;;;43.60;30.25;;;16.60;99.90;;;;;;5003599;28;20447;-58
2021/06/08 04:58:23;;;;;;;49.05;30.08;;;16.70;99.90;;;;;;5003157;28;20026;-58
2021/06/08 05:01:14;;;;;;;53.13;30.63;;;16.70;99.90;;;;;;5006747;28;20026;-58
2021/06/08 05:03:42;;;;;;;48.13;30.60;;;16.70;99.90;;;;;;5001331;28;20014;-60
2021/06/08 05:06:15;;;;;;;46.35;32.40;;;16.70;99.90;;;;;;4996986;28;20429;-60
2021/06/08 05:08:50;;;;;;;51.22;31.50;;;16.80;99.90;;;;;;4999607;28;20096;-61
2021/06/08 05:11:21;;;;;;;49.78;31.55;;;16.80;99.90;;;;;;5003081;28;20026;-58
2021/06/08 05:13:49;;;;;;;47.50;28.70;;;16.80;99.90;;;;;;5005822;28;20014;-62
2021/06/08 05:16:16;;;;;;;42.15;29.38;;;16.90;99.90;;;;;;5002557;28;20113;-62
2021/06/08 05:18:44;;;;;;;45.97;30.58;;;16.90;99.90;;;;;;4999042;28;20340;-60
2021/06/08 05:21:11;;;;;;;47.13;31.45;;;16.90;99.90;;;;;;4998003;28;20068;-61
2021/06/08 05:23:38;;;;;;;50.63;31.73;;;16.90;99.90;;;;;;5002748;28;20437;-62
2021/06/08 05:26:04;;;;;;;52.58;31.40;;;17.00;99.90;;;;;;5001114;28;20360;-63
2021/06/08 05:28:32;;;;;;;39.25;28.27;;;17.00;99.90;;;;;;5000183;28;20013;-55
2021/06/08 05:30:58;;;;;;;42.35;28.35;;;17.00;99.90;;;;;;5020878;28;20022;-60
2021/06/08 05:33:25;;;;;;;48.35;30.70;;;17.00;99.90;;;;;;5006122;28;20029;-58
2021/06/08 05:35:56;;;;;;;42.90;30.02;;;17.00;99.90;;;;;;5003525;28;20034;-60
2021/06/08 05:38:35;;;;;;;39.60;26.73;;;17.00;99.90;;;;;;5000969;28;20030;-59
2021/06/08 05:41:08;;;;;;;50.13;31.75;;;17.10;99.90;;;;;;5006760;28;20022;-59
2021/06/08 05:43:34;;;;;;;46.08;32.78;;;17.10;99.90;;;;;;5003729;28;20056;-56
2021/06/08 05:45:59;;;;;;;48.55;30.40;;;17.10;99.90;;;;;;5004965;28;20471;-59
2021/06/08 05:48:28;;;;;;;50.95;31.92;;;17.20;99.90;;;;;;5003767;28;20026;-56
2021/06/08 05:50:56;;;;;;;44.55;29.75;;;17.20;99.90;;;;;;5008476;28;20037;-60
2021/06/08 05:53:23;;;;;;;42.97;29.17;;;17.30;99.90;;;;;;5008210;28;20022;-61
2021/06/08 05:55:56;;;;;;;45.25;30.38;;;17.40;99.90;;;;;;5006765;28;20030;-59
2021/06/08 05:58:27;;;;;;;47.75;31.13;;;17.40;99.90;;;;;;5007133;28;20134;-58
2021/06/08 06:00:54;;;;;;;51.70;32.22;;;17.50;99.90;;;;;;5006882;28;20037;-60
2021/06/08 06:03:23;;;;;;;51.67;32.67;;;17.40;99.90;;;;;;5007187;28;20029;-59
2021/06/08 06:05:51;;;;;;;49.72;31.10;;;17.50;99.90;;;;;;5009276;28;20026;-61
2021/06/08 06:08:17;;;;;;;46.13;28.17;;;17.60;99.90;;;;;;5008733;28;20128;-61
2021/06/08 06:10:44;;;;;;;48.67;29.90;;;17.60;99.90;;;;;;5006924;28;20045;-57
2021/06/08 06:13:17;;;;;;;46.03;28.90;;;17.60;99.90;;;;;;5009471;28;20038;-59
2021/06/08 06:15:45;;;;;;;50.08;31.15;;;17.70;99.90;;;;;;5005969;28;20034;-60
2021/06/08 06:18:13;;;;;;;52.88;31.05;;;17.70;99.90;;;;;;5006054;28;20053;-59
2021/06/08 06:20:39;;;;;;;49.63;31.08;;;17.80;99.90;;;;;;5007579;28;20030;-61
2021/06/08 06:23:05;;;;;;;45.15;30.20;;;17.80;99.90;;;;;;5009295;28;20379;-59
2021/06/08 06:25:30;;;;;;;53.83;31.80;;;17.80;99.90;;;;;;5022267;22;20492;-61
2021/06/08 06:27:56;;;;;;;50.83;32.58;;;17.90;99.90;;;;;;5007536;28;20578;-62
2021/06/08 06:30:23;;;;;;;42.92;29.15;;;17.90;99.90;;;;;;5006581;28;20518;-60
2021/06/08 06:32:50;;;;;;;48.35;29.30;;;17.90;99.90;;;;;;5008147;28;20040;-58
2021/06/08 06:35:16;;;;;;;46.25;30.15;;;17.90;99.90;;;;;;4999816;28;20040;-61
2021/06/08 06:37:43;;;;;;;50.95;31.45;;;17.90;99.90;;;;;;4992267;28;20034;-62
2021/06/08 06:40:14;;;;;;;48.85;31.17;;;18.00;99.90;;;;;;4987973;28;20034;-61
2021/06/08 06:42:43;;;;;;;54.10;32.00;;;18.00;99.90;;;;;;5001087;28;20085;-61
2021/06/08 06:45:14;;;;;;;42.20;29.52;;;18.10;99.90;;;;;;4988121;28;20042;-62
2021/06/08 06:47:41;;;;;;;48.75;30.60;;;18.20;99.90;;;;;;4990684;28;20030;-58
2021/06/08 06:50:09;;;;;;;45.80;29.45;;;18.20;99.90;;;;;;4993050;28;20037;-61
2021/06/08 06:52:38;;;;;;;42.10;28.73;;;18.30;99.90;;;;;;4989008;28;20050;-57
2021/06/08 06:55:06;;;;;;;38.85;28.58;;;18.40;99.90;;;;;;4999174;28;20121;-58
2021/06/08 06:57:33;;;;;;;47.60;31.42;;;18.40;99.90;;;;;;4996770;28;20087;-62
2021/06/08 06:59:59;;;;;;;43.80;29.92;;;18.40;99.90;;;;;;4987427;28;20023;-58
2021/06/08 07:02:25;;;;;;;48.67;33.03;;;18.50;99.90;;;;;;4991096;28;20031;-59
2021/06/08 07:04:51;;;;;;;45.90;31.05;;;18.60;99.90;;;;;;4987471;28;20034;-60
2021/06/08 07:07:21;;;;;;;47.10;29.95;;;18.60;99.90;;;;;;4995735;28;20039;-59
2021/06/08 07:09:48;;;;;;;48.67;30.52;;;18.70;99.90;;;;;;4996214;28;20026;-61
2021/06/08 07:12:19;;;;;;;53.42;31.50;;;18.80;99.90;;;;;;5008947;28;20029;-60
2021/06/08 07:14:45;;;;;;;42.42;30.27;;;18.80;99.90;;;;;;4987979;28;20083;-61
2021/06/08 07:17:12;;;;;;;42.83;29.88;;;18.80;99.90;;;;;;5001709;28;20380;-58
2021/06/08 07:19:38;;;;;;;42.50;27.33;;;19.00;99.90;;;;;;5009010;28;20022;-60
2021/06/08 07:22:05;;;;;;;40.83;29.98;;;19.20;99.90;;;;;;5002422;28;20090;-60
2021/06/08 07:24:32;;;;;;;48.38;31.73;;;19.20;99.90;;;;;;5008193;28;20033;-62
2021/06/08 07:26:58;;;;;;;40.42;28.33;;;19.20;99.90;;;;;;4991086;28;20034;-61
2021/06/08 07:29:24;;;;;;;44.75;28.60;;;19.30;99.90;;;;;;4991565;28;20034;-62
2021/06/08 07:32:05;;;;;;;42.92;28.88;;;19.40;99.90;;;;;;4995915;28;20034;-62
2021/06/08 07:34:39;;;;;;;37.25;25.73;;;19.50;99.90;;;;;;5001659;28;20051;-60
2021/06/08 07:37:07;;;;;;;34.45;25.17;;;19.70;99.90;;;;;;5002076;28;20060;-61
2021/06/08 07:39:41;;;;;;;41.05;25.25;;;19.80;99.90;;;;;;4989854;28;20027;-62
2021/06/08 07:42:12;;;;;;;43.22;28.45;;;19.90;99.90;;;;;;5002091;28;20109;-61
2021/06/08 07:44:51;;;;;;;33.65;24.33;;;19.90;99.90;;;;;;5002567;28;20030;-62
2021/06/08 07:47:20;;;;;;;37.28;27.08;;;19.90;99.90;;;;;;4991764;28;20026;-61
2021/06/08 07:49:49;;;;;;;38.10;25.90;;;19.90;99.90;;;;;;4992069;28;20030;-61
2021/06/08 07:52:16;;;;;;;37.45;25.30;;;20.00;99.90;;;;;;4989946;28;20034;-63
2021/06/08 07:54:42;;;;;;;43.25;26.75;;;20.10;99.90;;;;;;4986121;28;20041;-61
2021/06/08 07:57:08;;;;;;;40.15;26.73;;;20.10;99.90;;;;;;5001061;28;20027;-60
2021/06/08 07:59:34;;;;;;;35.72;24.55;;;20.10;99.90;;;;;;4986249;28;20030;-61
2021/06/08 08:02:01;;;;;;;38.95;26.30;;;20.20;99.90;;;;;;4995211;28;20376;-61
2021/06/08 08:04:34;;;;;;;35.78;26.40;;;20.20;99.90;;;;;;5001560;28;20026;-59
2021/06/08 08:07:00;;;;;;;31.30;23.95;;;20.20;99.90;;;;;;4982588;28;20038;-63
2021/06/08 08:09:26;;;;;;;39.15;23.00;;;20.30;99.90;;;;;;4992008;28;20030;-62
2021/06/08 08:11:53;;;;;;;37.38;25.20;;;20.30;99.90;;;;;;4997735;28;20040;-62
2021/06/08 08:14:22;;;;;;;40.08;25.45;;;20.40;99.90;;;;;;5002892;28;20030;-60
2021/06/08 08:16:48;;;;;;;36.17;25.65;;;20.40;99.90;;;;;;5001037;28;20489;-61
2021/06/08 08:19:19;;;;;;;32.33;24.52;;;20.30;99.90;;;;;;4999136;28;20026;-62
2021/06/08 08:21:45;;;;;;;35.42;24.35;;;20.40;99.90;;;;;;4995371;28;20101;-61
2021/06/08 08:24:11;;;;;;;39.22;25.83;;;20.40;99.90;;;;;;4999508;28;20030;-61
2021/06/08 08:26:38;;;;;;;38.42;24.45;;;20.40;99.90;;;;;;4990122;28;20563;-58
2021/06/08 08:29:04;;;;;;;32.85;21.73;;;20.50;99.90;;;;;;4994451;28;20360;-60
2021/06/08 08:31:31;;;;;;;35.50;22.20;;;20.60;99.90;;;;;;4997693;28;20491;-59
2021/06/08 08:33:58;;;;;;;29.20;20.25;;;20.70;99.90;;;;;;4996459;28;20027;-60
2021/06/08 08:36:27;;;;;;;31.20;21.50;;;20.80;99.90;;;;;;4991744;28;20044;-59
2021/06/08 08:38:53;;;;;;;29.52;21.67;;;20.80;99.90;;;;;;4993495;28;20445;-60
2021/06/08 08:41:19;;;;;;;32.05;20.73;;;20.70;99.90;;;;;;4996593;28;20035;-59
2021/06/08 08:43:49;;;;;;;31.23;19.10;;;20.70;99.90;;;;;;5000580;28;20018;-59
2021/06/08 08:46:16;;;;;;;28.80;18.45;;;20.70;99.90;;;;;;4995738;28;20027;-59
2021/06/08 08:48:57;;;;;;;26.25;18.95;;;20.80;99.90;;;;;;4947044;28;20047;-59
2021/06/08 08:51:25;;;;;;;30.52;18.38;;;20.60;99.90;;;;;;5007344;28;20026;-59
2021/06/08 08:53:53;;;;;;;27.00;19.13;;;20.60;99.90;;;;;;5004843;28;20036;-59
2021/06/08 08:56:36;;;;;;;29.92;18.05;;;20.60;99.90;;;;;;4988781;28;20437;-59
2021/06/08 08:59:03;;;;;;;27.50;17.85;;;20.60;99.90;;;;;;5004193;28;20075;-58
2021/06/08 09:01:29;;;;;;;21.83;16.98;;;20.50;99.90;;;;;;4995298;28;20034;-60
2021/06/08 09:03:55;;;;;;;25.20;16.63;;;20.50;99.90;;;;;;4988262;28;20029;-59
2021/06/08 09:06:21;;;;;;;24.02;13.73;;;20.50;99.90;;;;;;5007234;28;20388;-60
2021/06/08 09:08:47;;;;;;;18.67;13.68;;;20.50;99.90;;;;;;5006790;28;20110;-59
2021/06/08 09:11:13;;;;;;;20.75;14.82;;;20.60;99.90;;;;;;5006724;28;20068;-58
2021/06/08 09:13:42;;;;;;;22.02;15.82;;;20.70;99.90;;;;;;5008313;28;20033;-58
2021/06/08 09:16:09;;;;;;;18.33;13.32;;;20.70;99.90;;;;;;4999161;28;20179;-58
2021/06/08 09:18:35;;;;;;;20.77;12.75;;;20.80;99.90;;;;;;4991582;28;20034;-57
2021/06/08 09:21:21;;;;;;;17.77;12.25;;;20.90;99.90;;;;;;4987844;28;20472;-59
2021/06/08 09:23:47;;;;;;;17.42;11.85;;;21.00;99.90;;;;;;4989249;28;20507;-60
2021/06/08 09:26:15;;;;;;;13.13;10.77;;;21.20;99.90;;;;;;4988929;28;20031;-58
2021/06/08 09:28:42;;;;;;;15.70;10.80;;;21.40;99.90;;;;;;4989446;28;20045;-60
2021/06/08 09:31:20;;;;;;;14.02;10.50;;;21.70;99.90;;;;;;4994036;28;20034;-59
2021/06/08 09:33:52;;;;;;;15.65;9.43;;;21.90;99.90;;;;;;4994596;28;20488;-61
2021/06/08 09:36:22;;;;;;;16.90;10.90;;;22.10;99.90;;;;;;4989054;28;20060;-59
2021/06/08 09:38:51;;;;;;;17.38;10.70;;;22.30;99.90;;;;;;4988635;28;20031;-61
2021/06/08 09:41:27;;;;;;;17.08;10.80;;;22.40;99.90;;;;;;4989394;28;20115;-60
2021/06/08 09:43:56;;;;;;;12.07;7.65;;;22.60;99.90;;;;;;4996504;28;20041;-60
2021/06/08 09:46:27;;;;;;;11.45;7.28;;;22.50;99.90;;;;;;5002061;28;20022;-59
2021/06/08 09:49:01;;;;;;;9.75;7.03;;;22.40;99.90;;;;;;5008088;28;20018;-60
2021/06/08 09:51:44;;;;;;;8.73;6.00;;;22.20;99.90;;;;;;4999929;28;20045;-60
2021/06/08 09:54:23;;;;;;;7.72;5.80;;;22.00;99.90;;;;;;4999381;28;20029;-60
2021/06/08 09:56:48;;;;;;;10.05;8.43;;;21.90;99.90;;;;;;4988627;28;20045;-58
2021/06/08 09:59:14;;;;;;;10.68;7.97;;;21.90;99.90;;;;;;5004959;28;20027;-60
2021/06/08 10:01:39;;;;;;;13.43;7.20;;;21.80;99.90;;;;;;4992335;28;20031;-59
2021/06/08 10:04:05;;;;;;;10.15;6.07;;;22.00;99.90;;;;;;4988578;28;20034;-60
2021/06/08 10:06:38;;;;;;;7.07;6.38;;;22.10;99.90;;;;;;4989671;28;20026;-58
2021/06/08 10:09:09;;;;;;;9.30;6.77;;;22.40;99.90;;;;;;4993144;28;20418;-59
2021/06/08 10:11:36;;;;;;;7.75;6.32;;;22.50;99.90;;;;;;5007793;28;20030;-60
2021/06/08 10:14:20;;;;;;;9.85;8.43;;;22.60;99.90;;;;;;5002993;28;20128;-60
2021/06/08 10:16:59;;;;;;;14.90;10.87;;;22.50;99.90;;;;;;4996123;28;20060;-60
2021/06/08 10:19:25;;;;;;;16.13;11.60;;;22.40;99.90;;;;;;4991362;28;20462;-58
2021/06/08 10:21:51;;;;;;;11.65;9.32;;;22.40;99.90;;;;;;5007766;28;20025;-59
2021/06/08 10:24:20;;;;;;;14.27;9.65;;;22.40;99.90;;;;;;4998323;28;20113;-59
2021/06/08 10:26:52;;;;;;;16.25;8.77;;;22.40;99.90;;;;;;5001931;28;20129;-60
2021/06/08 10:29:20;;;;;;;12.90;9.90;;;22.40;99.90;;;;;;4997841;28;20452;-56
2021/06/08 10:31:46;;;;;;;15.38;11.13;;;22.40;99.90;;;;;;5005560;28;20030;-60
2021/06/08 10:34:12;;;;;;;18.05;12.13;;;22.80;99.90;;;;;;5005705;28;20078;-60
2021/06/08 10:36:41;;;;;;;15.75;12.15;;;23.00;99.90;;;;;;4991562;28;20034;-60
2021/06/08 10:39:12;;;;;;;16.35;13.00;;;23.10;99.90;;;;;;4991430;28;20023;-60
2021/06/08 10:41:40;;;;;;;15.43;11.57;;;23.30;99.90;;;;;;4996852;28;20019;-60
2021/06/08 10:44:06;;;;;;;24.85;15.45;;;23.40;99.90;;;;;;4991790;28;20018;-60
2021/06/08 10:46:44;;;;;;;19.63;13.43;;;23.20;99.90;;;;;;4997829;28;20065;-60
2021/06/08 10:49:09;;;;;;;18.38;14.30;;;23.20;99.90;;;;;;5009078;28;20034;-59
2021/06/08 10:51:36;;;;;;;17.30;13.13;;;23.30;99.90;;;;;;4998411;28;20497;-58
2021/06/08 10:54:05;;;;;;;17.83;13.80;;;23.20;99.90;;;;;;4995904;28;20110;-60
2021/06/08 10:56:36;;;;;;;19.20;12.57;;;23.30;99.90;;;;;;4991718;28;20114;-59
2021/06/08 10:59:07;;;;;;;14.15;10.80;;;23.80;99.90;;;;;;4998062;28;20030;-60
2021/06/08 11:01:34;;;;;;;22.48;11.30;;;24.10;99.90;;;;;;4992309;28;20064;-59
2021/06/08 11:04:06;;;;;;;14.13;10.35;;;24.20;99.90;;;;;;4993975;28;20039;-59
2021/06/08 11:06:40;;;;;;;19.00;13.38;;;24.10;99.90;;;;;;5005116;28;20505;-58
2021/06/08 11:09:15;;;;;;;18.08;12.63;;;23.60;99.90;;;;;;5005694;28;20199;-59
2021/06/08 11:11:45;;;;;;;18.65;13.05;;;23.40;99.90;;;;;;4988232;28;20464;-59
2021/06/08 11:15:14;;;;;;;15.82;11.73;;;23.10;99.90;;;;;;4999695;28;20117;-59
2021/06/08 11:17:36;;;;;;;17.85;11.77;;;23.10;99.90;;;;;;5011240;28;20065;-58
2021/06/08 11:20:15;;;;;;;17.58;11.68;;;22.90;99.90;;;;;;4988982;28;20076;-58
2021/06/08 11:22:41;;;;;;;12.20;10.43;;;22.80;99.90;;;;;;4996292;28;20079;-59
2021/06/08 11:25:33;;;;;;;17.15;10.68;;;22.70;99.90;;;;;;5009411;28;20072;-57
2021/06/08 11:28:00;;;;;;;17.33;12.93;;;22.80;99.90;;;;;;4999994;28;20031;-55
2021/06/08 11:30:35;;;;;;;21.88;13.88;;;23.00;99.90;;;;;;4996632;28;20029;-59
2021/06/08 11:33:06;;;;;;;13.82;10.75;;;23.30;99.90;;;;;;4992804;28;20030;-59
2021/06/08 11:35:42;;;;;;;13.07;10.63;;;23.20;99.90;;;;;;4994359;28;20034;-59
2021/06/08 11:38:23;;;;;;;22.15;13.73;;;23.30;99.90;;;;;;4991398;28;20087;-58
2021/06/08 11:40:51;;;;;;;19.05;13.18;;;23.20;99.90;;;;;;4991093;28;20396;-58
2021/06/08 11:43:17;;;;;;;18.40;14.73;;;23.10;99.90;;;;;;4991008;28;20476;-57
2021/06/08 11:45:45;;;;;;;18.52;14.05;;;22.90;99.90;;;;;;4985511;28;20053;-57
2021/06/08 11:48:31;;;;;;;15.82;11.80;;;23.00;99.90;;;;;;4993473;28;20030;-58
2021/06/08 11:51:20;;;;;;;24.20;13.10;;;23.10;99.90;;;;;;4990913;28;20038;-58
2021/06/08 11:54:13;;;;;;;17.50;11.75;;;23.20;99.90;;;;;;4986576;28;21148;-58
2021/06/08 11:56:55;;;;;;;18.38;11.18;;;23.20;99.90;;;;;;4990091;28;20030;-59
2021/06/08 11:59:22;;;;;;;18.98;14.85;;;23.30;99.90;;;;;;4990337;28;20034;-57
2021/06/08 12:01:59;;;;;;;18.45;11.88;;;23.30;99.90;;;;;;5003660;28;20021;-56
2021/06/08 12:04:27;;;;;;;16.00;13.02;;;23.30;99.90;;;;;;5008779;28;20014;-56
2021/06/08 12:07:05;;;;;;;20.75;14.38;;;23.20;99.90;;;;;;5009058;28;20026;-57
2021/06/08 12:09:46;;;;;;;18.63;14.40;;;23.20;99.90;;;;;;4999465;28;20540;-53
2021/06/08 12:12:14;;;;;;;19.02;11.63;;;23.20;99.90;;;;;;4993090;28;20040;-53
2021/06/08 12:14:55;;;;;;;16.33;12.55;;;23.30;99.90;;;;;;5001234;28;20027;-55
2021/06/08 12:17:21;;;;;;;18.88;12.15;;;23.30;99.90;;;;;;4989004;28;20065;-58
2021/06/08 12:19:46;;;;;;;15.55;11.80;;;23.30;99.90;;;;;;4989580;28;20034;-58
2021/06/08 12:22:18;;;;;;;17.13;12.80;;;23.40;99.90;;;;;;4996600;28;20026;-58
2021/06/08 12:25:13;;;;;;;17.30;12.63;;;23.50;99.90;;;;;;4997585;28;20034;-57
2021/06/08 12:27:40;;;;;;;17.23;12.93;;;23.60;99.90;;;;;;5004147;28;20065;-57
2021/06/08 12:30:15;;;;;;;19.85;13.55;;;23.60;99.90;;;;;;4998343;28;20030;-58
2021/06/08 12:32:42;;;;;;;20.83;13.20;;;23.50;99.90;;;;;;4987466;28;20392;-56
2021/06/08 12:35:31;;;;;;;17.67;11.00;;;23.50;99.90;;;;;;4989686;28;20502;-60
2021/06/08 12:38:26;;;;;;;13.15;11.20;;;23.60;99.90;;;;;;4983581;28;20668;-57
2021/06/08 12:41:09;;;;;;;15.90;10.50;;;23.60;99.90;;;;;;4988788;28;20035;-61